Time;durP1;ratioP1;P1;durP2;ratioP2;P2;SDS_P1;SDS_P2;PMS_P1;PMS_P2;Temp;Humidity;BMP_temperature;BMP_pressure;BME280_temperature;BME280_humidity;BME280_pressure;Samples;Min_cycle;Max_cycle;Signal;HPM_P1;HPM_P2
2023/04/08 00:00:47;;;;;;;14.73;11.17;;;;;;;11.25;92.39;98376.47;4175350;28;20640;-82
2023/04/08 00:02:50;;;;;;;13.20;11.90;;;;;;;11.26;91.32;98375.56;4187860;28;20681;-81
2023/04/08 00:04:55;;;;;;;17.30;13.30;;;;;;;11.24;92.30;98374.78;4183758;28;20659;-81
2023/04/08 00:06:58;;;;;;;12.57;11.27;;;;;;;11.20;91.31;98375.97;4186438;28;21065;-81
2023/04/08 00:09:02;;;;;;;11.53;10.40;;;;;;;11.18;93.11;98384.81;4191079;28;20634;-81
2023/04/08 00:11:05;;;;;;;13.17;10.80;;;;;;;11.17;92.73;98383.13;4168994;28;20671;-81
2023/04/08 00:13:08;;;;;;;14.33;11.00;;;;;;;11.16;92.63;98386.72;4186792;28;20631;-81
2023/04/08 00:15:11;;;;;;;12.50;10.80;;;;;;;11.18;92.51;98388.25;4183889;28;21200;-81
2023/04/08 00:17:14;;;;;;;12.30;11.00;;;;;;;11.16;93.73;98392.75;4187782;28;20650;-81
2023/04/08 00:19:17;;;;;;;11.30;10.17;;;;;;;11.14;93.50;98378.13;4184934;28;21200;-81
2023/04/08 00:21:22;;;;;;;11.17;10.00;;;;;;;11.14;92.97;98392.03;4184728;28;20629;-81
2023/04/08 00:23:25;;;;;;;11.50;9.70;;;;;;;11.14;93.81;98383.34;4183590;28;20663;-81
2023/04/08 00:25:28;;;;;;;10.63;9.00;;;;;;;11.10;93.95;98393.16;4178270;28;21043;-81
2023/04/08 00:27:32;;;;;;;9.20;8.30;;;;;;;11.11;93.57;98393.97;4183913;28;20657;-81
2023/04/08 00:29:35;;;;;;;11.23;9.10;;;;;;;11.09;94.05;98383.63;4187638;28;21266;-81
2023/04/08 00:31:38;;;;;;;10.27;9.10;;;;;;;11.07;94.73;98382.09;4187971;28;20683;-81
2023/04/08 00:33:41;;;;;;;10.30;9.30;;;;;;;11.05;94.32;98387.41;4185443;28;20664;-82
2023/04/08 00:35:45;;;;;;;10.43;9.30;;;;;;;11.04;94.30;98393.56;4183344;28;20635;-81
2023/04/08 00:37:50;;;;;;;11.07;9.50;;;;;;;11.03;94.11;98394.47;4187197;28;20657;-81
2023/04/08 00:39:53;;;;;;;10.50;9.40;;;;;;;11.02;94.81;98387.59;4185298;28;20655;-82
2023/04/08 00:41:56;;;;;;;10.60;9.60;;;;;;;11.01;94.87;98388.53;4176512;28;20635;-82
2023/04/08 00:43:59;;;;;;;10.23;9.13;;;;;;;11.02;93.91;98384.13;4203894;28;20670;-82
2023/04/08 00:46:03;;;;;;;10.80;9.37;;;;;;;11.02;94.26;98390.22;4185517;28;20624;-82
2023/04/08 00:48:06;;;;;;;10.30;9.03;;;;;;;11.00;94.66;98396.47;4181943;28;20649;-82
2023/04/08 00:50:10;;;;;;;11.60;10.17;;;;;;;11.01;94.25;98392.94;4187038;28;20670;-81
2023/04/08 00:52:14;;;;;;;12.10;10.57;;;;;;;11.01;93.97;98392.94;4186595;28;20639;-82
2023/04/08 00:54:18;;;;;;;13.30;11.90;;;;;;;11.01;94.50;98387.72;4185304;28;20635;-81
2023/04/08 00:56:21;;;;;;;10.67;9.50;;;;;;;11.00;94.01;98389.47;4180723;28;21028;-81
2023/04/08 00:58:24;;;;;;;11.00;8.63;;;;;;;10.98;93.80;98390.50;4178569;28;21191;-81
2023/04/08 01:00:29;;;;;;;12.13;10.93;;;;;;;10.97;94.01;98396.66;4180543;28;20626;-81
2023/04/08 01:02:37;;;;;;;12.20;10.90;;;;;;;10.98;93.54;98396.56;4182417;28;20628;-81
2023/04/08 01:04:47;;;;;;;12.30;11.00;;;;;;;10.97;93.68;98397.47;4171747;28;20664;-82
2023/04/08 01:06:54;;;;;;;12.53;11.23;;;;;;;10.98;94.65;98404.38;4179100;28;20687;-81
2023/04/08 01:09:00;;;;;;;13.77;11.40;;;;;;;10.97;93.66;98394.03;4160998;28;20652;-81
2023/04/08 01:11:06;;;;;;;12.47;11.20;;;;;;;10.96;94.36;98390.63;4157715;28;21220;-81
2023/04/08 01:13:10;;;;;;;13.47;11.27;;;;;;;10.97;94.62;98400.09;4192900;28;21202;-81
2023/04/08 01:15:14;;;;;;;13.70;11.67;;;;;;;10.98;93.53;98399.16;4191544;28;21232;-81
2023/04/08 01:17:18;;;;;;;12.37;11.07;;;;;;;10.98;93.56;98398.34;4182719;28;20675;-81
2023/04/08 01:19:29;;;;;;;11.60;10.40;;;;;;;10.98;93.77;98398.34;4183661;28;20632;-81
2023/04/08 01:21:32;;;;;;;12.13;10.77;;;;;;;10.98;94.01;98407.00;4178440;28;20651;-81
2023/04/08 01:23:41;;;;;;;12.73;10.20;;;;;;;10.99;93.19;98397.38;4187595;28;20663;-82
2023/04/08 01:25:47;;;;;;;11.33;10.10;;;;;;;10.99;93.75;98400.00;4190462;28;21389;-81
2023/04/08 01:27:50;;;;;;;11.37;10.07;;;;;;;10.97;93.65;98397.47;4195437;28;20652;-81
2023/04/08 01:29:55;;;;;;;10.40;9.40;;;;;;;10.96;92.34;98392.38;4186958;28;20631;-82
2023/04/08 01:31:59;;;;;;;10.47;9.30;;;;;;;10.95;92.60;98401.97;4183131;28;20666;-81
2023/04/08 01:34:05;;;;;;;9.90;8.90;;;;;;;10.92;92.30;98402.19;4186598;28;20660;-81
2023/04/08 01:36:08;;;;;;;10.93;9.20;;;;;;;10.92;92.06;98396.13;4175472;28;20624;-81
2023/04/08 01:38:15;;;;;;;10.03;9.03;;;;;;;10.92;92.26;98394.34;4182553;28;20659;-81
2023/04/08 01:40:20;;;;;;;10.37;9.27;;;;;;;10.90;92.30;98401.44;4170813;28;20639;-81
2023/04/08 01:42:25;;;;;;;11.43;9.17;;;;;;;10.89;92.18;98398.94;4168996;28;20758;-81
2023/04/08 01:44:29;;;;;;;9.50;8.43;;;;;;;10.88;91.39;98400.72;4183045;28;20708;-81
2023/04/08 01:46:33;;;;;;;10.57;9.50;;;;;;;10.86;90.69;98397.34;4168553;28;20640;-81
2023/04/08 01:48:38;;;;;;;9.77;8.77;;;;;;;10.85;91.37;98400.91;4168723;28;20653;-81
2023/04/08 01:50:41;;;;;;;9.43;8.03;;;;;;;10.83;91.87;98399.31;4185005;28;20682;-81
2023/04/08 01:52:45;;;;;;;8.90;8.10;;;;;;;10.84;91.75;98398.41;4187752;28;20626;-81
2023/04/08 01:54:49;;;;;;;9.43;8.47;;;;;;;10.83;90.98;98392.34;4168131;28;20629;-82
2023/04/08 01:56:55;;;;;;;9.93;7.83;;;;;;;10.83;90.44;98397.53;4173090;28;20649;-81
2023/04/08 01:59:00;;;;;;;9.00;8.10;;;;;;;10.84;90.32;98393.19;4177346;28;21135;-81
2023/04/08 02:01:05;;;;;;;9.53;8.53;;;;;;;10.84;90.25;98390.59;4166993;28;20636;-81
2023/04/08 02:03:08;;;;;;;10.27;9.17;;;;;;;10.82;91.10;98388.06;4175956;28;20966;-81
2023/04/08 02:05:12;;;;;;;9.47;8.47;;;;;;;10.84;90.23;98399.22;4168490;28;20660;-81
2023/04/08 02:07:15;;;;;;;9.13;8.23;;;;;;;10.84;90.74;98398.41;4164399;28;20624;-81
2023/04/08 02:09:19;;;;;;;9.70;8.20;;;;;;;10.83;91.60;98396.72;4172489;28;20632;-84
2023/04/08 02:11:23;;;;;;;8.63;7.73;;;;;;;10.81;90.32;98396.81;4163829;28;20647;-81
2023/04/08 02:13:27;;;;;;;9.23;8.33;;;;;;;10.80;90.28;98394.31;4176909;28;20670;-81
2023/04/08 02:15:35;;;;;;;9.07;8.03;;;;;;;10.81;90.33;98399.44;4182690;28;20681;-81
2023/04/08 02:17:43;;;;;;;8.20;7.40;;;;;;;10.80;90.63;98393.47;4165935;28;20660;-81
2023/04/08 02:19:50;;;;;;;8.77;7.87;;;;;;;10.79;91.02;98391.78;4187945;28;21291;-81
2023/04/08 02:21:57;;;;;;;9.77;8.43;;;;;;;10.78;90.54;98400.56;4169758;28;20616;-81
2023/04/08 02:24:02;;;;;;;11.13;9.93;;;;;;;10.75;90.97;98398.13;4171214;28;20666;-81
2023/04/08 02:26:08;;;;;;;10.53;9.53;;;;;;;10.73;90.48;98397.41;4185698;28;20647;-81
2023/04/08 02:28:12;;;;;;;10.13;9.13;;;;;;;10.71;90.92;98394.06;4186710;28;20703;-81
2023/04/08 02:30:15;;;;;;;11.43;10.23;;;;;;;10.71;90.09;98401.91;4189009;28;20635;-81
2023/04/08 02:32:20;;;;;;;11.03;9.93;;;;;;;10.69;90.65;98403.75;4171445;28;20729;-81
2023/04/08 02:34:24;;;;;;;11.40;10.20;;;;;;;10.67;90.39;98397.78;4167220;28;20660;-81
2023/04/08 02:36:27;;;;;;;10.50;9.40;;;;;;;10.64;90.60;98411.03;4186427;28;20643;-81
2023/04/08 02:38:30;;;;;;;10.60;9.50;;;;;;;10.63;90.37;98398.91;4184332;28;20627;-81
2023/04/08 02:40:34;;;;;;;10.40;9.30;;;;;;;10.59;90.96;98397.47;4169011;28;20630;-81
2023/04/08 02:42:39;;;;;;;9.90;8.90;;;;;;;10.57;90.38;98397.56;4188589;28;20630;-81
2023/04/08 02:44:41;;;;;;;10.70;9.50;;;;;;;10.58;90.12;98408.81;4184927;28;20643;-81
2023/04/08 02:46:44;;;;;;;11.00;9.60;;;;;;;10.56;89.96;98402.88;4183245;28;20916;-81
2023/04/08 02:48:48;;;;;;;12.73;9.47;;;;;;;10.55;90.65;98398.56;4181602;28;20763;-82
2023/04/08 02:50:52;;;;;;;11.13;9.70;;;;;;;10.53;90.54;98401.28;4189699;28;20626;-81
2023/04/08 02:52:55;;;;;;;11.03;9.93;;;;;;;10.53;90.16;98405.66;4174312;28;21276;-81
2023/04/08 02:54:58;;;;;;;11.37;10.17;;;;;;;10.52;90.27;98403.97;4185503;28;21040;-81
2023/04/08 02:57:02;;;;;;;11.83;10.63;;;;;;;10.50;90.66;98409.28;4176598;28;20641;-81
2023/04/08 02:59:05;;;;;;;13.10;11.70;;;;;;;10.49;91.27;98405.03;4182271;28;20656;-81
2023/04/08 03:01:08;;;;;;;12.53;11.23;;;;;;;10.45;90.38;98403.53;4189585;28;20654;-81
2023/04/08 03:03:11;;;;;;;13.47;12.07;;;;;;;10.45;90.66;98408.75;4190551;28;20778;-81
2023/04/08 03:05:16;;;;;;;14.73;11.80;;;;;;;10.44;90.80;98411.47;4173527;28;20703;-81
2023/04/08 03:07:19;;;;;;;11.67;10.43;;;;;;;10.43;90.96;98400.19;4192266;28;20722;-81
2023/04/08 03:09:22;;;;;;;13.03;11.40;;;;;;;10.42;90.57;98402.91;4191002;28;20657;-81
2023/04/08 03:11:26;;;;;;;12.57;11.10;;;;;;;10.41;90.45;98402.03;4189642;28;21005;-81
2023/04/08 03:13:30;;;;;;;14.03;12.53;;;;;;;10.40;91.17;98402.16;4169441;28;20644;-81
2023/04/08 03:15:33;;;;;;;13.50;12.10;;;;;;;10.38;91.29;98401.41;4183893;28;20642;-81
2023/04/08 03:17:36;;;;;;;13.63;11.77;;;;;;;10.38;91.27;98402.25;4186892;28;21201;-81
2023/04/08 03:19:40;;;;;;;13.47;12.07;;;;;;;10.37;91.55;98404.94;4164895;28;23009;-82
2023/04/08 03:21:44;;;;;;;13.30;11.90;;;;;;;10.36;91.26;98406.72;4188506;28;20681;-81
2023/04/08 03:23:47;;;;;;;13.13;11.73;;;;;;;10.34;91.37;98405.13;4183610;28;20741;-81
2023/04/08 03:25:50;;;;;;;15.40;12.70;;;;;;;10.32;91.38;98400.00;4189398;28;20636;-82
2023/04/08 03:27:53;;;;;;;15.40;13.17;;;;;;;10.33;91.41;98393.06;4186785;28;21012;-81
2023/04/08 03:29:57;;;;;;;13.40;12.00;;;;;;;10.31;91.33;98402.72;4174443;28;20640;-82
2023/04/08 03:32:00;;;;;;;14.80;13.23;;;;;;;10.31;91.18;98404.50;4184824;28;20632;-81
2023/04/08 03:34:04;;;;;;;16.43;13.47;;;;;;;10.29;90.72;98399.38;4179275;28;20633;-82
2023/04/08 03:36:07;;;;;;;15.10;13.27;;;;;;;10.27;91.37;98401.25;4182419;28;20729;-81
2023/04/08 03:38:12;;;;;;;14.83;12.73;;;;;;;10.27;91.10;98403.84;4188231;28;20635;-82
2023/04/08 03:40:15;;;;;;;14.80;12.80;;;;;;;10.26;91.16;98404.78;4187840;28;20919;-82
2023/04/08 03:42:18;;;;;;;17.13;13.87;;;;;;;10.24;91.21;98401.44;4188218;28;20753;-81
2023/04/08 03:44:21;;;;;;;15.37;12.93;;;;;;;10.21;90.71;98400.78;4184799;28;20627;-81
2023/04/08 03:46:24;;;;;;;14.90;12.97;;;;;;;10.19;90.52;98403.47;4185374;28;21251;-81
2023/04/08 03:48:28;;;;;;;16.10;14.00;;;;;;;10.18;90.63;98398.34;4193054;28;21046;-81
2023/04/08 03:50:31;;;;;;;15.53;13.07;;;;;;;10.17;90.88;98402.75;4185210;28;21339;-81
2023/04/08 03:52:34;;;;;;;15.20;13.07;;;;;;;10.16;90.89;98405.44;4187937;28;20632;-82
2023/04/08 03:54:38;;;;;;;16.27;14.13;;;;;;;10.15;90.85;98406.34;4170251;28;21134;-81
2023/04/08 03:56:41;;;;;;;15.97;14.10;;;;;;;10.14;90.91;98402.94;4189265;28;20647;-81
2023/04/08 03:58:44;;;;;;;16.17;14.00;;;;;;;10.13;91.16;98406.50;4186352;28;20643;-81
2023/04/08 04:00:47;;;;;;;17.40;15.37;;;;;;;10.14;91.35;98410.75;4190477;28;20727;-81
2023/04/08 04:02:50;;;;;;;16.70;14.30;;;;;;;10.14;91.55;98409.91;4190385;28;20629;-81
2023/04/08 04:04:54;;;;;;;18.73;15.30;;;;;;;10.14;91.48;98405.53;4187232;28;21252;-81
2023/04/08 04:06:57;;;;;;;17.30;14.63;;;;;;;10.12;91.50;98404.81;4182182;28;21377;-81
2023/04/08 04:09:00;;;;;;;16.37;14.17;;;;;;;10.10;91.35;98398.84;4189393;28;20677;-81
2023/04/08 04:11:04;;;;;;;15.83;13.90;;;;;;;10.09;91.47;98404.16;4187910;28;20630;-81
2023/04/08 04:13:07;;;;;;;16.63;14.73;;;;;;;10.07;91.20;98399.03;4171538;28;20625;-81
2023/04/08 04:15:11;;;;;;;15.77;13.60;;;;;;;10.06;91.86;98404.34;4186145;28;20636;-81
2023/04/08 04:17:15;;;;;;;17.33;14.30;;;;;;;10.03;91.66;98407.97;4181228;28;20632;-81
2023/04/08 04:19:18;;;;;;;17.53;14.17;;;;;;;10.04;91.64;98407.06;4186746;28;20637;-83
2023/04/08 04:21:21;;;;;;;18.47;14.80;;;;;;;10.03;91.54;98405.38;4188639;28;20636;-83
2023/04/08 04:23:24;;;;;;;17.17;14.77;;;;;;;10.02;91.28;98406.28;4185362;28;20741;-84
2023/04/08 04:25:27;;;;;;;17.70;14.90;;;;;;;10.00;91.55;98410.75;4191653;28;20641;-83
2023/04/08 04:27:32;;;;;;;17.53;13.83;;;;;;;9.99;91.37;98419.50;4189632;28;20661;-84
2023/04/08 04:29:37;;;;;;;18.53;14.70;;;;;;;9.99;91.63;98423.88;4166181;28;20649;-84
2023/04/08 04:31:40;;;;;;;18.53;15.03;;;;;;;9.97;91.41;98421.38;4195353;28;20638;-83
2023/04/08 04:33:44;;;;;;;19.50;14.53;;;;;;;9.96;91.35;98429.28;4189518;28;20639;-83
2023/04/08 04:35:47;;;;;;;16.83;14.47;;;;;;;9.94;92.13;98429.38;4186120;28;21251;-84
2023/04/08 04:37:50;;;;;;;15.60;13.33;;;;;;;9.94;91.57;98433.75;4189091;28;20642;-83
2023/04/08 04:39:53;;;;;;;17.80;15.30;;;;;;;9.92;91.61;98433.81;4186237;28;20644;-83
2023/04/08 04:41:56;;;;;;;15.73;13.10;;;;;;;9.92;91.71;98431.22;4174808;28;20642;-83
2023/04/08 04:44:01;;;;;;;15.90;12.43;;;;;;;9.91;91.31;98431.28;4188913;28;20631;-84
2023/04/08 04:46:07;;;;;;;15.20;12.90;;;;;;;9.89;91.94;98435.75;4186285;28;20637;-83
2023/04/08 04:48:10;;;;;;;15.87;13.40;;;;;;;9.89;91.72;98443.56;4185199;28;20680;-84
2023/04/08 04:50:14;;;;;;;15.37;12.30;;;;;;;9.87;92.16;98441.03;4187269;28;20651;-84
2023/04/08 04:52:17;;;;;;;15.93;13.00;;;;;;;9.88;92.12;98447.13;4171360;28;20807;-84
2023/04/08 04:54:20;;;;;;;15.37;12.40;;;;;;;9.89;92.53;98451.38;4182655;28;20632;-83
2023/04/08 04:56:24;;;;;;;14.73;12.23;;;;;;;9.89;92.53;98449.63;4168735;28;20648;-84
2023/04/08 04:58:27;;;;;;;15.87;13.50;;;;;;;9.89;92.50;98443.56;4182279;28;20643;-83
2023/04/08 05:00:31;;;;;;;18.90;13.60;;;;;;;9.90;93.24;98443.47;4182923;28;20713;-84
2023/04/08 05:02:35;;;;;;;15.97;13.97;;;;;;;9.91;92.78;98449.53;4189225;28;20650;-84
2023/04/08 05:04:38;;;;;;;15.10;12.97;;;;;;;9.94;92.85;98446.78;4168865;28;21262;-84
2023/04/08 05:06:41;;;;;;;15.03;12.70;;;;;;;9.93;92.81;98443.31;4188896;28;20663;-84
2023/04/08 05:08:44;;;;;;;16.53;13.63;;;;;;;9.96;92.69;98453.56;4186938;28;21403;-84
2023/04/08 05:10:49;;;;;;;14.50;11.90;;;;;;;9.94;92.30;98445.00;4186471;28;20647;-84
2023/04/08 05:12:52;;;;;;;15.47;13.50;;;;;;;9.93;92.91;98451.13;4187350;28;21204;-83
2023/04/08 05:14:55;;;;;;;14.50;12.40;;;;;;;9.95;92.58;98446.69;4188699;28;20663;-84
2023/04/08 05:16:59;;;;;;;15.43;12.60;;;;;;;9.93;92.38;98456.34;4181362;28;20678;-84
2023/04/08 05:19:02;;;;;;;13.97;11.67;;;;;;;9.95;92.12;98454.50;4187969;28;20742;-84
2023/04/08 05:21:05;;;;;;;14.03;11.40;;;;;;;9.96;92.20;98457.94;4192748;28;20634;-84
2023/04/08 05:23:09;;;;;;;13.70;11.90;;;;;;;9.97;91.82;98463.06;4184380;28;20654;-83
2023/04/08 05:25:12;;;;;;;14.87;12.47;;;;;;;9.98;91.81;98462.13;4166491;28;20632;-83
2023/04/08 05:27:15;;;;;;;12.80;11.43;;;;;;;9.98;91.77;98467.34;4188746;28;20988;-83
2023/04/08 05:29:20;;;;;;;14.77;12.60;;;;;;;9.98;91.18;98469.09;4185129;28;20730;-84
2023/04/08 05:31:23;;;;;;;14.83;12.33;;;;;;;9.97;91.82;98465.66;4185594;28;20646;-83
2023/04/08 05:33:28;;;;;;;15.23;13.00;;;;;;;9.98;91.74;98471.69;4182808;28;22582;-83
2023/04/08 05:35:31;;;;;;;16.40;13.80;;;;;;;10.01;91.52;98468.91;4181934;28;20676;-83
2023/04/08 05:37:34;;;;;;;16.37;13.90;;;;;;;10.02;91.15;98471.41;4182679;28;20715;-84
2023/04/08 05:39:37;;;;;;;16.63;13.27;;;;;;;10.04;91.88;98473.94;4163932;28;20629;-83
2023/04/08 05:41:40;;;;;;;15.90;13.43;;;;;;;10.04;92.56;98471.34;4185737;28;20640;-84
2023/04/08 05:43:43;;;;;;;16.73;13.90;;;;;;;10.06;92.84;98479.91;4185822;28;20631;-84
2023/04/08 05:45:46;;;;;;;17.03;13.00;;;;;;;10.05;92.55;98476.44;4188169;28;20708;-84
2023/04/08 05:47:49;;;;;;;15.53;12.40;;;;;;;10.07;92.84;98484.19;4187512;28;20636;-83
2023/04/08 05:49:54;;;;;;;15.03;12.87;;;;;;;10.05;92.88;98479.06;4171780;28;20676;-83
2023/04/08 05:51:57;;;;;;;16.10;13.33;;;;;;;10.04;93.13;98474.78;4188886;28;20627;-84
2023/04/08 05:54:00;;;;;;;14.77;12.80;;;;;;;10.05;93.09;98475.63;4183784;28;20636;-84
2023/04/08 05:56:03;;;;;;;19.20;15.13;;;;;;;10.07;92.96;98473.75;4188536;28;21162;-84
2023/04/08 05:58:07;;;;;;;16.47;14.07;;;;;;;10.09;92.84;98480.56;4191935;28;20731;-84
2023/04/08 06:00:11;;;;;;;15.70;13.60;;;;;;;10.12;92.38;98485.59;4188499;28;20647;-84
2023/04/08 06:02:14;;;;;;;17.13;14.20;;;;;;;10.17;92.82;98496.56;4182541;28;20620;-84
2023/04/08 06:04:17;;;;;;;16.53;14.00;;;;;;;10.22;92.75;98497.13;4184798;28;20655;-83
2023/04/08 06:06:22;;;;;;;16.93;13.93;;;;;;;10.27;92.58;98500.31;4185079;28;20635;-84
2023/04/08 06:08:25;;;;;;;16.97;13.83;;;;;;;10.30;91.91;98502.72;4184323;28;20681;-84
2023/04/08 06:10:28;;;;;;;15.83;13.37;;;;;;;10.32;92.02;98502.63;4188643;28;21224;-83
2023/04/08 06:12:31;;;;;;;18.03;13.93;;;;;;;10.34;92.04;98514.63;4185033;28;20636;-83
2023/04/08 06:14:34;;;;;;;17.23;13.83;;;;;;;10.36;91.85;98507.56;4185940;28;20663;-84
2023/04/08 06:16:37;;;;;;;17.93;15.10;;;;;;;10.40;92.23;98509.91;4178810;28;20728;-83
2023/04/08 06:18:41;;;;;;;17.97;14.70;;;;;;;10.45;91.59;98512.22;4187826;28;20632;-83
2023/04/08 06:20:44;;;;;;;21.33;14.50;;;;;;;10.44;91.12;98516.59;4183489;28;20641;-83
2023/04/08 06:22:49;;;;;;;17.50;14.17;;;;;;;10.47;91.12;98518.16;4183588;28;21217;-84
2023/04/08 06:24:52;;;;;;;16.10;13.67;;;;;;;10.51;91.44;98514.47;4183368;28;20646;-83
2023/04/08 06:26:55;;;;;;;16.80;13.40;;;;;;;10.55;91.89;98513.31;4172611;28;20652;-83
2023/04/08 06:28:59;;;;;;;15.83;13.70;;;;;;;10.60;91.54;98516.47;4187458;28;20642;-83
2023/04/08 06:31:02;;;;;;;15.97;12.80;;;;;;;10.63;91.78;98524.09;4178266;28;20644;-84
2023/04/08 06:33:06;;;;;;;15.37;13.30;;;;;;;10.63;91.31;98522.34;4181234;28;21805;-84
2023/04/08 06:35:09;;;;;;;12.80;10.67;;;;;;;10.64;90.91;98523.19;4179002;28;21199;-84
2023/04/08 06:37:12;;;;;;;14.83;11.50;;;;;;;10.66;90.75;98526.53;4182184;28;21215;-85
2023/04/08 06:39:18;;;;;;;14.00;11.93;;;;;;;10.68;89.99;98535.94;4179671;28;20623;-86
2023/04/08 06:41:21;;;;;;;13.57;10.40;;;;;;;10.71;90.31;98529.72;4171843;28;20620;-85
2023/04/08 06:43:25;;;;;;;12.00;10.70;;;;;;;10.74;90.08;98529.53;4180494;28;20671;-85
2023/04/08 06:45:28;;;;;;;11.97;10.23;;;;;;;10.77;90.45;98530.16;4172834;28;21213;-85
2023/04/08 06:47:31;;;;;;;12.60;11.30;;;;;;;10.81;90.62;98531.66;4178737;28;20636;-85
2023/04/08 06:49:36;;;;;;;12.87;10.90;;;;;;;10.85;89.40;98538.34;4179096;28;20639;-85
2023/04/08 06:51:39;;;;;;;14.83;11.47;;;;;;;10.89;90.31;98543.28;4168693;28;20735;-85
2023/04/08 06:53:42;;;;;;;14.63;11.20;;;;;;;10.95;89.76;98534.25;4184228;28;21018;-85
2023/04/08 06:55:47;;;;;;;13.70;11.33;;;;;;;11.01;88.98;98542.50;4183743;28;20635;-87
2023/04/08 06:57:50;;;;;;;14.97;11.93;;;;;;;11.06;89.32;98543.06;4169561;28;20641;-91
2023/04/08 06:59:53;;;;;;;17.57;12.60;;;;;;;11.12;89.77;98547.06;4161241;28;20726;-87
2023/04/08 07:01:56;;;;;;;14.05;12.50;;;;;;;11.18;89.67;98546.66;4181638;28;21306;-84
2023/04/08 07:04:01;;;;;;;13.70;12.20;;;;;;;11.25;88.55;98547.97;4182064;28;20213;-82
2023/04/08 07:06:04;;;;;;;16.63;13.77;;;;;;;11.32;89.55;98550.06;4185941;28;20659;-83
2023/04/08 07:08:07;;;;;;;16.67;12.90;;;;;;;11.39;88.03;98549.56;4179181;28;20635;-85
2023/04/08 07:10:11;;;;;;;16.77;13.40;;;;;;;11.46;87.28;98547.44;4178152;28;20690;-85
2023/04/08 07:12:15;;;;;;;15.83;12.60;;;;;;;11.51;87.97;98540.97;4186155;28;20646;-85
2023/04/08 07:14:19;;;;;;;15.00;12.37;;;;;;;11.60;88.38;98550.00;4169638;28;20731;-85
2023/04/08 07:16:22;;;;;;;13.83;12.40;;;;;;;11.62;87.45;98543.75;4188548;28;20648;-85
2023/04/08 07:18:25;;;;;;;13.77;11.80;;;;;;;11.68;87.55;98545.13;4178417;28;21183;-85
2023/04/08 07:20:28;;;;;;;15.87;12.70;;;;;;;11.77;85.71;98540.97;4182863;28;21035;-85
2023/04/08 07:22:34;;;;;;;14.70;12.77;;;;;;;11.79;84.71;98552.16;4183418;28;20783;-85
2023/04/08 07:24:37;;;;;;;15.33;12.50;;;;;;;11.77;84.96;98553.19;4181248;28;21472;-85
2023/04/08 07:26:40;;;;;;;14.77;12.60;;;;;;;11.78;83.76;98555.69;4182259;28;20639;-85
2023/04/08 07:28:44;;;;;;;14.87;13.27;;;;;;;11.77;83.02;98561.88;4182543;28;20625;-85
2023/04/08 07:30:48;;;;;;;16.20;13.33;;;;;;;11.85;83.95;98561.38;4187651;28;20694;-86
2023/04/08 07:32:51;;;;;;;16.80;13.53;;;;;;;12.06;83.97;98568.63;4186257;28;20628;-86
2023/04/08 07:34:54;;;;;;;14.87;12.93;;;;;;;12.23;83.48;98572.75;4181910;28;20752;-86
2023/04/08 07:36:57;;;;;;;14.90;12.43;;;;;;;12.05;81.03;98564.34;4188030;28;20706;-87
2023/04/08 07:39:00;;;;;;;17.70;13.53;;;;;;;12.13;80.48;98572.50;4185132;28;20648;-85
2023/04/08 07:41:04;;;;;;;16.00;13.63;;;;;;;12.41;83.09;98567.91;4164383;28;21400;-85
2023/04/08 07:43:08;;;;;;;13.20;11.73;;;;;;;12.64;84.03;98577.66;4185043;28;20719;-85
2023/04/08 07:45:12;;;;;;;15.87;14.17;;;;;;;12.79;83.39;98573.97;4187163;28;20637;-85
2023/04/08 07:47:15;;;;;;;15.60;13.20;;;;;;;12.91;82.36;98571.38;4180775;28;20632;-85
2023/04/08 07:49:18;;;;;;;15.83;13.37;;;;;;;12.94;79.31;98579.00;4183304;28;20683;-85
2023/04/08 07:51:21;;;;;;;15.13;13.23;;;;;;;13.08;80.02;98583.28;4181851;28;21123;-85
2023/04/08 07:53:25;;;;;;;16.70;13.60;;;;;;;13.27;79.64;98587.13;4185376;28;20641;-85
2023/04/08 07:55:28;;;;;;;15.33;13.70;;;;;;;13.48;79.30;98596.06;4185260;28;20648;-85
2023/04/08 07:57:31;;;;;;;15.10;13.37;;;;;;;13.62;78.90;98593.28;4178955;28;20639;-86
2023/04/08 07:59:35;;;;;;;15.37;13.13;;;;;;;13.62;76.31;98590.66;4183030;28;20629;-86
2023/04/08 08:01:39;;;;;;;16.53;14.40;;;;;;;13.71;75.40;98596.91;4188961;28;20646;-86
2023/04/08 08:03:43;;;;;;;15.03;13.30;;;;;;;13.77;75.69;98587.75;4184221;28;21056;-86
2023/04/08 08:05:46;;;;;;;16.40;14.10;;;;;;;13.77;73.58;98593.84;4182926;28;20742;-87
2023/04/08 08:07:49;;;;;;;16.20;14.50;;;;;;;13.70;72.03;98592.63;4180772;28;21099;-87
2023/04/08 08:09:52;;;;;;;16.77;14.97;;;;;;;13.74;72.49;98588.84;4183859;28;20635;-85
2023/04/08 08:11:55;;;;;;;16.27;14.43;;;;;;;13.81;73.56;98587.41;4188354;28;20658;-86
2023/04/08 08:13:58;;;;;;;17.37;15.27;;;;;;;13.83;73.70;98585.53;4174844;28;20634;-91
2023/04/08 08:16:01;;;;;;;18.40;14.83;;;;;;;13.82;71.91;98585.66;4191689;28;21332;-86
2023/04/08 08:18:06;;;;;;;17.17;15.40;;;;;;;13.74;70.98;98580.97;4188153;28;21245;-84
2023/04/08 08:20:10;;;;;;;16.27;14.57;;;;;;;13.69;71.11;98584.88;4185158;28;20666;-84
2023/04/08 08:22:13;;;;;;;17.30;15.50;;;;;;;13.68;70.73;98581.41;4179748;28;20621;-83
2023/04/08 08:24:16;;;;;;;15.87;14.17;;;;;;;13.67;71.61;98581.53;4192036;28;21210;-84
2023/04/08 08:26:20;;;;;;;18.43;15.03;;;;;;;13.63;70.79;98587.09;4176986;28;20925;-83
2023/04/08 08:28:23;;;;;;;17.27;15.47;;;;;;;13.67;71.84;98586.78;4189019;28;21200;-83
2023/04/08 08:30:26;;;;;;;16.73;15.03;;;;;;;13.71;70.49;98586.44;4189768;28;20737;-83
2023/04/08 08:32:30;;;;;;;16.67;14.87;;;;;;;13.75;68.74;98580.00;4186826;28;20703;-84
2023/04/08 08:34:35;;;;;;;15.83;14.13;;;;;;;13.80;70.84;98587.53;4185976;28;20687;-83
2023/04/08 08:36:38;;;;;;;17.07;14.97;;;;;;;13.86;70.29;98594.94;4188300;28;20732;-83
2023/04/08 08:38:41;;;;;;;16.60;14.33;;;;;;;13.92;69.63;98597.13;4187517;28;20625;-84
2023/04/08 08:40:44;;;;;;;17.63;15.73;;;;;;;13.90;68.39;98593.78;4188056;28;20660;-83
2023/04/08 08:42:51;;;;;;;16.30;14.30;;;;;;;13.88;68.32;98600.94;4192543;28;20621;-83
2023/04/08 08:44:54;;;;;;;18.00;15.27;;;;;;;13.90;71.08;98596.41;4190624;28;20675;-84
2023/04/08 08:46:57;;;;;;;15.97;14.30;;;;;;;13.95;69.79;98602.16;4184867;28;20638;-83
2023/04/08 08:49:01;;;;;;;17.20;15.40;;;;;;;13.99;70.37;98599.19;4188864;28;20707;-83
2023/04/08 08:51:09;;;;;;;16.70;15.00;;;;;;;14.05;70.02;98603.19;4185589;28;22443;-83
2023/04/08 08:53:12;;;;;;;16.20;14.53;;;;;;;14.21;70.88;98604.56;4182379;28;20685;-83
2023/04/08 08:55:18;;;;;;;17.95;16.10;;;;;;;14.40;71.32;98608.31;4187322;28;20790;-83
2023/04/08 08:57:41;;;;;;;17.00;15.30;;;;;;;14.62;70.91;98610.97;4184368;28;20262;-83
2023/04/08 08:59:48;;;;;;;17.20;15.40;;;;;;;14.71;68.98;98616.34;4188212;28;20650;-83
2023/04/08 09:01:51;;;;;;;17.20;15.00;;;;;;;14.80;68.00;98620.09;4187550;28;20619;-83
2023/04/08 09:04:07;;;;;;;16.77;15.03;;;;;;;14.87;67.46;98624.75;4188911;28;20700;-83
2023/04/08 09:06:12;;;;;;;16.53;13.13;;;;;;;14.89;68.28;98628.09;4188472;28;21314;-83
2023/04/08 09:08:25;;;;;;;17.13;15.43;;;;;;;14.92;67.50;98622.59;4187967;28;20734;-83
2023/04/08 09:10:29;;;;;;;16.80;14.97;;;;;;;15.00;68.44;98622.00;4185167;28;20636;-83
2023/04/08 09:12:32;;;;;;;15.43;13.93;;;;;;;15.05;68.32;98623.34;4175119;28;20671;-83
2023/04/08 09:14:35;;;;;;;17.10;15.30;;;;;;;15.06;66.03;98624.97;4184371;28;20733;-83
2023/04/08 09:16:44;;;;;;;16.83;14.97;;;;;;;15.03;66.63;98619.97;4184272;28;21194;-83
2023/04/08 09:18:48;;;;;;;17.10;15.40;;;;;;;15.16;68.22;98620.69;4170009;28;20646;-83
2023/04/08 09:20:52;;;;;;;16.87;15.17;;;;;;;15.13;65.05;98628.81;4189795;28;21004;-83
2023/04/08 09:22:58;;;;;;;16.40;14.67;;;;;;;15.22;64.82;98628.13;4188985;28;20991;-84
2023/04/08 09:25:22;;;;;;;23.90;14.77;;;;;;;15.18;62.73;98626.69;4185416;28;20642;-84
2023/04/08 09:27:34;;;;;;;14.20;12.80;;;;;;;14.79;57.95;98611.38;4187826;28;21076;-84
2023/04/08 09:29:37;;;;;;;32.00;27.77;;;;;;;14.65;56.71;98608.94;4192830;28;21025;-84
2023/04/08 09:31:42;;;;;;;22.03;18.70;;;;;;;14.28;57.85;98613.63;4190190;28;20730;-84